To NAV CANADA Home Page Login to a new session Search on AWWS site Disclaimer Vers la page française équivalente Tips FAQ What's new on the site To the Forecasts and Observations / NOTAM section To "File a Flight Plan" website Publications and other links Update of the User's profile FIC Telephone Numbers My Weather Data Folder Route Weather Data Regional Weather Data Local Weather Data To the Forecasts and Observations / NOTAM section
Request Generated 06/30/2022 at 10:46:02 UTC . Weather information available at that time is displayed.


Go to a specific product

Save this request - Inactive

METAR/TAF

CALGARY/YYC CALGARY INTL/AB    

METAR CYYC 301000Z 34008KT 15SM SCT072 BKN120 11/07 A3012 RMK AC3AC2 SLP213 DENSITY ALT 3800FT=
METAR CYYC 300900Z 33008KT 15SM SCT096 BKN120 11/07 A3011 RMK AC3AC3 SLP212 DENSITY ALT 3800FT=
METAR CYYC 300800Z 33010G16KT 15SM SCT036 BKN087 11/08 A3010 RMK SC3AC3 SLP200 DENSITY ALT 3900FT=

TAF CYYC 300840Z 3009/0106 33008KT P6SM SCT030 BKN080 TEMPO
3009/3013 BKN030
BECMG 3013/3015 FEW030
FM301700 02005KT P6SM SCT050 TEMPO 3018/3021 P6SM -SHRA BKN050
FM302100 07005KT P6SM SCT060 BKN090 TEMPO 3021/0101 VRB20G30KT
P6SM -TSRA BKN060CB
FM010200 12005KT P6SM BKN080
BECMG 0104/0106 VRB03KT
RMK NXT FCST BY 301200Z=

CALGARY/SPRINGBANK/AB    (show WxCam)

METAR CYBW 301000Z AUTO 29010G15KT 9SM FEW066 BKN092 BKN120 09/07 A3014 RMK SLP220 DENSITY ALT 4000FT=
METAR CYBW 300900Z AUTO 30010G15KT 9SM OVC096 09/07 A3013 RMK SLP218 DENSITY ALT 4000FT=
METAR CYBW 300800Z AUTO /////KT 9SM BKN038 BKN045 OVC066 10/07 A3012 RMK WIND MISG SLP209 DENSITY ALT 4100FT=

*** REMARK        : Forecast period has ended; this was the last TAF issued
*** REMARQUE : La période de prévision est échue; ceci était le dernier TAF qui a été émis
TAF AMD CYBW 300048Z 3000/3004 06010G20KT P6SM SCT080 BKN120 TEMPO
3000/3004 P6SM -SHRA BKN060 BKN100
BECMG 3002/3004 35006KT
RMK FCST BASED ON AUTO OBS. NXT FCST BY 301200Z=


GRAPHICAL FA CLOUDS & WEATHER FORECASTS
To the Product Selector
Graphical FA gfacn32      

GRAPHICAL FA ICING, TURBULENCE & FREEZING LEVEL FORECASTS
To the Product Selector
Graphical FA gfacn32      

Your time UTC time
Weather data provided by Environment Canada and NAV CANADA